sensor_id;sensor_type;location;lat;lon;timestamp;P1;durP1;ratioP1;P2;durP2;ratioP2
33954;SDS011;20233;50.804;7.126;2023-07-30T00:01:40;7.53;;;4.82;;
33954;SDS011;20233;50.804;7.126;2023-07-30T00:04:06;9.00;;;5.05;;
33954;SDS011;20233;50.804;7.126;2023-07-30T00:06:31;9.52;;;5.05;;
33954;SDS011;20233;50.804;7.126;2023-07-30T00:08:57;9.32;;;5.75;;
33954;SDS011;20233;50.804;7.126;2023-07-30T00:11:22;8.02;;;4.75;;
33954;SDS011;20233;50.804;7.126;2023-07-30T00:13:48;8.30;;;4.82;;
33954;SDS011;20233;50.804;7.126;2023-07-30T00:16:13;3.90;;;3.35;;
33954;SDS011;20233;50.804;7.126;2023-07-30T00:18:39;5.68;;;3.25;;
33954;SDS011;20233;50.804;7.126;2023-07-30T00:21:04;5.38;;;3.55;;
33954;SDS011;20233;50.804;7.126;2023-07-30T00:23:30;7.50;;;3.90;;
33954;SDS011;20233;50.804;7.126;2023-07-30T00:25:55;6.18;;;4.25;;
33954;SDS011;20233;50.804;7.126;2023-07-30T00:28:21;5.65;;;3.92;;
33954;SDS011;20233;50.804;7.126;2023-07-30T00:30:46;5.78;;;3.92;;
33954;SDS011;20233;50.804;7.126;2023-07-30T00:33:12;6.10;;;3.58;;
33954;SDS011;20233;50.804;7.126;2023-07-30T00:35:37;5.97;;;3.50;;
33954;SDS011;20233;50.804;7.126;2023-07-30T00:38:03;6.95;;;3.40;;
33954;SDS011;20233;50.804;7.126;2023-07-30T00:40:29;6.13;;;3.75;;
33954;SDS011;20233;50.804;7.126;2023-07-30T00:42:54;8.25;;;4.10;;
33954;SDS011;20233;50.804;7.126;2023-07-30T00:45:20;6.28;;;3.85;;
33954;SDS011;20233;50.804;7.126;2023-07-30T00:47:46;6.78;;;4.10;;
33954;SDS011;20233;50.804;7.126;2023-07-30T00:50:13;7.72;;;4.70;;
33954;SDS011;20233;50.804;7.126;2023-07-30T00:52:40;7.43;;;4.07;;
33954;SDS011;20233;50.804;7.126;2023-07-30T00:55:06;6.15;;;4.13;;
33954;SDS011;20233;50.804;7.126;2023-07-30T00:57:32;9.13;;;5.68;;
33954;SDS011;20233;50.804;7.126;2023-07-30T01:00:00;10.57;;;4.93;;
33954;SDS011;20233;50.804;7.126;2023-07-30T01:02:31;8.27;;;4.22;;
33954;SDS011;20233;50.804;7.126;2023-07-30T01:04:57;6.82;;;4.43;;
33954;SDS011;20233;50.804;7.126;2023-07-30T01:07:25;5.57;;;4.30;;
33954;SDS011;20233;50.804;7.126;2023-07-30T01:09:50;6.13;;;3.80;;
33954;SDS011;20233;50.804;7.126;2023-07-30T01:12:16;7.90;;;3.97;;
33954;SDS011;20233;50.804;7.126;2023-07-30T01:14:42;7.82;;;4.60;;
33954;SDS011;20233;50.804;7.126;2023-07-30T01:17:10;5.68;;;3.97;;
33954;SDS011;20233;50.804;7.126;2023-07-30T01:19:36;5.50;;;4.10;;
33954;SDS011;20233;50.804;7.126;2023-07-30T01:22:02;6.20;;;4.55;;
33954;SDS011;20233;50.804;7.126;2023-07-30T01:24:28;7.22;;;4.18;;
33954;SDS011;20233;50.804;7.126;2023-07-30T01:26:55;7.22;;;3.90;;
33954;SDS011;20233;50.804;7.126;2023-07-30T01:29:27;8.88;;;4.53;;
33954;SDS011;20233;50.804;7.126;2023-07-30T01:31:59;7.22;;;4.43;;
33954;SDS011;20233;50.804;7.126;2023-07-30T01:34:29;10.52;;;4.63;;
33954;SDS011;20233;50.804;7.126;2023-07-30T01:36:59;10.52;;;5.10;;
33954;SDS011;20233;50.804;7.126;2023-07-30T01:39:25;7.55;;;3.97;;
33954;SDS011;20233;50.804;7.126;2023-07-30T01:41:53;6.68;;;4.75;;
33954;SDS011;20233;50.804;7.126;2023-07-30T01:44:19;9.60;;;4.72;;
33954;SDS011;20233;50.804;7.126;2023-07-30T01:46:45;7.75;;;4.07;;
33954;SDS011;20233;50.804;7.126;2023-07-30T01:49:10;5.65;;;4.03;;
33954;SDS011;20233;50.804;7.126;2023-07-30T01:51:36;10.75;;;4.70;;
33954;SDS011;20233;50.804;7.126;2023-07-30T01:54:01;5.53;;;4.13;;
33954;SDS011;20233;50.804;7.126;2023-07-30T01:56:27;6.53;;;4.10;;
33954;SDS011;20233;50.804;7.126;2023-07-30T01:58:52;9.07;;;4.13;;
33954;SDS011;20233;50.804;7.126;2023-07-30T02:01:18;5.07;;;3.85;;
33954;SDS011;20233;50.804;7.126;2023-07-30T02:03:43;5.97;;;3.63;;
33954;SDS011;20233;50.804;7.126;2023-07-30T02:06:09;4.57;;;3.47;;
33954;SDS011;20233;50.804;7.126;2023-07-30T02:08:37;6.65;;;3.45;;
33954;SDS011;20233;50.804;7.126;2023-07-30T02:11:03;4.30;;;2.78;;
33954;SDS011;20233;50.804;7.126;2023-07-30T02:13:29;3.80;;;3.03;;
33954;SDS011;20233;50.804;7.126;2023-07-30T02:15:54;6.30;;;3.05;;
33954;SDS011;20233;50.804;7.126;2023-07-30T02:18:20;4.75;;;2.80;;
33954;SDS011;20233;50.804;7.126;2023-07-30T02:20:45;6.47;;;2.85;;
33954;SDS011;20233;50.804;7.126;2023-07-30T02:23:13;3.42;;;2.30;;
33954;SDS011;20233;50.804;7.126;2023-07-30T02:25:41;4.60;;;2.33;;
33954;SDS011;20233;50.804;7.126;2023-07-30T02:28:06;3.65;;;2.78;;
33954;SDS011;20233;50.804;7.126;2023-07-30T02:30:32;4.93;;;2.00;;
33954;SDS011;20233;50.804;7.126;2023-07-30T02:32:58;4.25;;;2.22;;
33954;SDS011;20233;50.804;7.126;2023-07-30T02:35:24;4.82;;;2.55;;
33954;SDS011;20233;50.804;7.126;2023-07-30T02:37:50;4.10;;;1.98;;
33954;SDS011;20233;50.804;7.126;2023-07-30T02:40:16;5.85;;;1.80;;
33954;SDS011;20233;50.804;7.126;2023-07-30T02:42:42;5.35;;;1.77;;
33954;SDS011;20233;50.804;7.126;2023-07-30T02:45:07;4.85;;;1.73;;
33954;SDS011;20233;50.804;7.126;2023-07-30T02:47:33;4.65;;;1.85;;
33954;SDS011;20233;50.804;7.126;2023-07-30T02:49:58;3.15;;;1.73;;
33954;SDS011;20233;50.804;7.126;2023-07-30T02:52:24;5.78;;;2.08;;
33954;SDS011;20233;50.804;7.126;2023-07-30T02:54:49;5.40;;;2.28;;
33954;SDS011;20233;50.804;7.126;2023-07-30T02:57:15;4.15;;;1.80;;
33954;SDS011;20233;50.804;7.126;2023-07-30T02:59:40;4.35;;;2.47;;
33954;SDS011;20233;50.804;7.126;2023-07-30T03:02:06;3.47;;;1.92;;
33954;SDS011;20233;50.804;7.126;2023-07-30T03:04:32;4.85;;;2.13;;
33954;SDS011;20233;50.804;7.126;2023-07-30T03:06:58;5.93;;;1.90;;
33954;SDS011;20233;50.804;7.126;2023-07-30T03:09:23;3.25;;;1.75;;
33954;SDS011;20233;50.804;7.126;2023-07-30T03:11:49;3.63;;;2.00;;
33954;SDS011;20233;50.804;7.126;2023-07-30T03:14:15;3.22;;;1.70;;
33954;SDS011;20233;50.804;7.126;2023-07-30T03:16:40;5.93;;;2.60;;
33954;SDS011;20233;50.804;7.126;2023-07-30T03:19:06;7.18;;;1.90;;
33954;SDS011;20233;50.804;7.126;2023-07-30T03:21:31;4.15;;;2.17;;
33954;SDS011;20233;50.804;7.126;2023-07-30T03:23:57;4.10;;;2.00;;
33954;SDS011;20233;50.804;7.126;2023-07-30T03:26:22;4.22;;;2.13;;
33954;SDS011;20233;50.804;7.126;2023-07-30T03:28:48;5.60;;;2.50;;
33954;SDS011;20233;50.804;7.126;2023-07-30T03:31:14;4.03;;;1.80;;
33954;SDS011;20233;50.804;7.126;2023-07-30T03:33:39;3.40;;;2.28;;
33954;SDS011;20233;50.804;7.126;2023-07-30T03:36:09;5.70;;;2.15;;
33954;SDS011;20233;50.804;7.126;2023-07-30T03:38:35;7.47;;;2.08;;
33954;SDS011;20233;50.804;7.126;2023-07-30T03:41:00;5.47;;;2.20;;
33954;SDS011;20233;50.804;7.126;2023-07-30T03:43:26;3.63;;;2.05;;
33954;SDS011;20233;50.804;7.126;2023-07-30T03:45:52;4.45;;;2.20;;
33954;SDS011;20233;50.804;7.126;2023-07-30T03:48:17;6.10;;;2.30;;
33954;SDS011;20233;50.804;7.126;2023-07-30T03:50:43;5.47;;;2.40;;
33954;SDS011;20233;50.804;7.126;2023-07-30T03:53:08;3.97;;;2.30;;
33954;SDS011;20233;50.804;7.126;2023-07-30T03:55:34;4.22;;;2.70;;
33954;SDS011;20233;50.804;7.126;2023-07-30T03:57:59;7.53;;;2.40;;
33954;SDS011;20233;50.804;7.126;2023-07-30T04:00:25;4.38;;;2.03;;
33954;SDS011;20233;50.804;7.126;2023-07-30T04:02:50;5.38;;;2.00;;
33954;SDS011;20233;50.804;7.126;2023-07-30T04:05:16;5.07;;;1.58;;
33954;SDS011;20233;50.804;7.126;2023-07-30T04:07:41;4.68;;;1.75;;
33954;SDS011;20233;50.804;7.126;2023-07-30T04:10:07;6.53;;;1.90;;
33954;SDS011;20233;50.804;7.126;2023-07-30T04:12:33;7.18;;;2.20;;
33954;SDS011;20233;50.804;7.126;2023-07-30T04:14:58;6.05;;;1.65;;
33954;SDS011;20233;50.804;7.126;2023-07-30T04:17:24;7.03;;;2.45;;
33954;SDS011;20233;50.804;7.126;2023-07-30T04:19:51;7.53;;;2.20;;
33954;SDS011;20233;50.804;7.126;2023-07-30T04:22:17;4.80;;;1.73;;
33954;SDS011;20233;50.804;7.126;2023-07-30T04:24:42;6.63;;;1.50;;
33954;SDS011;20233;50.804;7.126;2023-07-30T04:27:08;7.75;;;2.00;;
33954;SDS011;20233;50.804;7.126;2023-07-30T04:29:33;7.93;;;1.48;;
33954;SDS011;20233;50.804;7.126;2023-07-30T04:31:59;10.80;;;1.90;;
33954;SDS011;20233;50.804;7.126;2023-07-30T04:34:24;4.65;;;1.60;;
33954;SDS011;20233;50.804;7.126;2023-07-30T04:36:50;7.18;;;2.05;;
33954;SDS011;20233;50.804;7.126;2023-07-30T04:39:15;7.90;;;1.60;;
33954;SDS011;20233;50.804;7.126;2023-07-30T04:41:41;10.85;;;1.27;;
33954;SDS011;20233;50.804;7.126;2023-07-30T04:44:06;6.78;;;1.75;;
33954;SDS011;20233;50.804;7.126;2023-07-30T04:46:32;7.80;;;1.10;;
33954;SDS011;20233;50.804;7.126;2023-07-30T04:48:58;4.55;;;1.27;;
33954;SDS011;20233;50.804;7.126;2023-07-30T04:51:23;7.70;;;1.48;;
33954;SDS011;20233;50.804;7.126;2023-07-30T04:53:49;7.13;;;1.58;;
33954;SDS011;20233;50.804;7.126;2023-07-30T04:56:14;4.05;;;1.00;;
33954;SDS011;20233;50.804;7.126;2023-07-30T04:58:40;4.15;;;1.33;;
33954;SDS011;20233;50.804;7.126;2023-07-30T05:01:05;9.95;;;1.25;;
33954;SDS011;20233;50.804;7.126;2023-07-30T05:03:31;3.63;;;1.05;;
33954;SDS011;20233;50.804;7.126;2023-07-30T05:05:56;4.53;;;1.05;;
33954;SDS011;20233;50.804;7.126;2023-07-30T05:08:22;7.30;;;0.80;;
33954;SDS011;20233;50.804;7.126;2023-07-30T05:10:48;5.82;;;1.05;;
33954;SDS011;20233;50.804;7.126;2023-07-30T05:13:13;4.70;;;1.10;;
33954;SDS011;20233;50.804;7.126;2023-07-30T05:15:39;8.20;;;1.65;;
33954;SDS011;20233;50.804;7.126;2023-07-30T05:18:04;6.10;;;1.48;;
33954;SDS011;20233;50.804;7.126;2023-07-30T05:20:30;7.32;;;1.02;;
33954;SDS011;20233;50.804;7.126;2023-07-30T05:22:55;8.13;;;1.27;;
33954;SDS011;20233;50.804;7.126;2023-07-30T05:25:21;7.82;;;1.77;;
33954;SDS011;20233;50.804;7.126;2023-07-30T05:27:47;10.77;;;1.38;;
33954;SDS011;20233;50.804;7.126;2023-07-30T05:30:13;6.38;;;1.15;;
33954;SDS011;20233;50.804;7.126;2023-07-30T05:32:39;4.45;;;1.00;;
33954;SDS011;20233;50.804;7.126;2023-07-30T05:35:05;9.00;;;1.73;;
33954;SDS011;20233;50.804;7.126;2023-07-30T05:37:30;4.65;;;1.35;;
33954;SDS011;20233;50.804;7.126;2023-07-30T05:39:56;8.27;;;1.30;;
33954;SDS011;20233;50.804;7.126;2023-07-30T05:42:21;4.93;;;1.27;;
33954;SDS011;20233;50.804;7.126;2023-07-30T05:44:47;10.15;;;1.35;;
33954;SDS011;20233;50.804;7.126;2023-07-30T05:47:13;6.55;;;1.30;;
33954;SDS011;20233;50.804;7.126;2023-07-30T05:49:38;7.75;;;1.40;;
33954;SDS011;20233;50.804;7.126;2023-07-30T05:52:04;6.28;;;1.00;;
33954;SDS011;20233;50.804;7.126;2023-07-30T05:54:30;5.40;;;0.90;;
33954;SDS011;20233;50.804;7.126;2023-07-30T05:56:55;6.88;;;1.08;;
33954;SDS011;20233;50.804;7.126;2023-07-30T05:59:21;5.05;;;1.10;;
33954;SDS011;20233;50.804;7.126;2023-07-30T06:01:46;7.18;;;0.90;;
33954;SDS011;20233;50.804;7.126;2023-07-30T06:04:12;6.65;;;1.25;;
33954;SDS011;20233;50.804;7.126;2023-07-30T06:06:37;4.88;;;0.70;;
33954;SDS011;20233;50.804;7.126;2023-07-30T06:09:03;4.60;;;0.70;;
33954;SDS011;20233;50.804;7.126;2023-07-30T06:11:28;6.78;;;0.82;;
33954;SDS011;20233;50.804;7.126;2023-07-30T06:13:54;6.90;;;0.98;;
33954;SDS011;20233;50.804;7.126;2023-07-30T06:16:19;9.57;;;1.58;;
33954;SDS011;20233;50.804;7.126;2023-07-30T06:18:45;6.82;;;1.30;;
33954;SDS011;20233;50.804;7.126;2023-07-30T06:21:11;7.95;;;1.10;;
33954;SDS011;20233;50.804;7.126;2023-07-30T06:23:37;6.75;;;1.30;;
33954;SDS011;20233;50.804;7.126;2023-07-30T06:26:02;8.15;;;1.67;;
33954;SDS011;20233;50.804;7.126;2023-07-30T06:28:28;6.35;;;1.25;;
33954;SDS011;20233;50.804;7.126;2023-07-30T06:30:53;8.65;;;1.30;;
33954;SDS011;20233;50.804;7.126;2023-07-30T06:33:19;11.25;;;1.88;;
33954;SDS011;20233;50.804;7.126;2023-07-30T06:35:44;8.18;;;1.27;;
33954;SDS011;20233;50.804;7.126;2023-07-30T06:38:10;8.13;;;1.48;;
33954;SDS011;20233;50.804;7.126;2023-07-30T06:40:35;6.38;;;1.27;;
33954;SDS011;20233;50.804;7.126;2023-07-30T06:43:01;8.48;;;1.92;;
33954;SDS011;20233;50.804;7.126;2023-07-30T06:45:27;4.82;;;1.08;;
33954;SDS011;20233;50.804;7.126;2023-07-30T06:47:53;10.90;;;1.77;;
33954;SDS011;20233;50.804;7.126;2023-07-30T06:50:18;7.45;;;1.45;;
33954;SDS011;20233;50.804;7.126;2023-07-30T06:52:44;6.50;;;1.35;;
33954;SDS011;20233;50.804;7.126;2023-07-30T06:55:09;8.05;;;1.45;;
33954;SDS011;20233;50.804;7.126;2023-07-30T06:57:35;6.05;;;1.13;;
33954;SDS011;20233;50.804;7.126;2023-07-30T07:00:01;7.50;;;1.63;;
33954;SDS011;20233;50.804;7.126;2023-07-30T07:02:27;4.55;;;1.27;;
33954;SDS011;20233;50.804;7.126;2023-07-30T07:04:53;5.88;;;1.35;;
33954;SDS011;20233;50.804;7.126;2023-07-30T07:07:19;6.80;;;1.30;;
33954;SDS011;20233;50.804;7.126;2023-07-30T07:09:45;6.72;;;1.27;;
33954;SDS011;20233;50.804;7.126;2023-07-30T07:12:11;7.82;;;1.55;;
33954;SDS011;20233;50.804;7.126;2023-07-30T07:14:36;6.32;;;1.33;;
33954;SDS011;20233;50.804;7.126;2023-07-30T07:17:02;7.25;;;1.67;;
33954;SDS011;20233;50.804;7.126;2023-07-30T07:19:28;7.50;;;1.20;;
33954;SDS011;20233;50.804;7.126;2023-07-30T07:21:53;6.63;;;1.50;;
33954;SDS011;20233;50.804;7.126;2023-07-30T07:24:19;4.15;;;1.02;;
33954;SDS011;20233;50.804;7.126;2023-07-30T07:26:45;6.88;;;1.75;;
33954;SDS011;20233;50.804;7.126;2023-07-30T07:29:12;8.02;;;2.40;;
33954;SDS011;20233;50.804;7.126;2023-07-30T07:31:38;7.03;;;1.23;;
33954;SDS011;20233;50.804;7.126;2023-07-30T07:34:03;7.25;;;0.88;;
33954;SDS011;20233;50.804;7.126;2023-07-30T07:36:29;6.00;;;1.35;;
33954;SDS011;20233;50.804;7.126;2023-07-30T07:38:54;6.93;;;1.05;;
33954;SDS011;20233;50.804;7.126;2023-07-30T07:41:20;6.57;;;1.25;;
33954;SDS011;20233;50.804;7.126;2023-07-30T07:43:46;5.55;;;0.93;;
33954;SDS011;20233;50.804;7.126;2023-07-30T07:46:14;6.13;;;1.60;;
33954;SDS011;20233;50.804;7.126;2023-07-30T07:48:42;5.65;;;1.13;;
33954;SDS011;20233;50.804;7.126;2023-07-30T07:51:09;4.55;;;1.50;;
33954;SDS011;20233;50.804;7.126;2023-07-30T07:53:35;8.15;;;1.98;;
33954;SDS011;20233;50.804;7.126;2023-07-30T07:56:01;5.28;;;1.20;;
33954;SDS011;20233;50.804;7.126;2023-07-30T07:58:27;5.78;;;1.02;;
33954;SDS011;20233;50.804;7.126;2023-07-30T08:00:56;8.48;;;1.20;;
33954;SDS011;20233;50.804;7.126;2023-07-30T08:03:23;6.85;;;1.20;;
33954;SDS011;20233;50.804;7.126;2023-07-30T08:05:50;4.38;;;1.58;;
33954;SDS011;20233;50.804;7.126;2023-07-30T08:08:16;7.65;;;1.33;;
33954;SDS011;20233;50.804;7.126;2023-07-30T08:10:42;5.97;;;0.82;;
33954;SDS011;20233;50.804;7.126;2023-07-30T08:13:10;4.53;;;1.25;;
33954;SDS011;20233;50.804;7.126;2023-07-30T08:15:36;2.03;;;0.82;;
33954;SDS011;20233;50.804;7.126;2023-07-30T08:18:01;3.58;;;0.90;;
33954;SDS011;20233;50.804;7.126;2023-07-30T08:20:27;4.25;;;1.13;;
33954;SDS011;20233;50.804;7.126;2023-07-30T08:22:52;3.10;;;0.90;;
33954;SDS011;20233;50.804;7.126;2023-07-30T08:25:18;3.28;;;0.70;;
33954;SDS011;20233;50.804;7.126;2023-07-30T08:27:44;5.47;;;1.10;;
33954;SDS011;20233;50.804;7.126;2023-07-30T08:30:09;3.80;;;0.90;;
33954;SDS011;20233;50.804;7.126;2023-07-30T08:32:35;3.85;;;0.60;;
33954;SDS011;20233;50.804;7.126;2023-07-30T08:35:01;5.22;;;0.95;;
33954;SDS011;20233;50.804;7.126;2023-07-30T08:37:26;5.10;;;1.30;;
33954;SDS011;20233;50.804;7.126;2023-07-30T08:39:52;7.15;;;1.00;;
33954;SDS011;20233;50.804;7.126;2023-07-30T08:42:19;8.13;;;1.05;;
33954;SDS011;20233;50.804;7.126;2023-07-30T08:44:44;6.63;;;1.20;;
33954;SDS011;20233;50.804;7.126;2023-07-30T08:47:10;6.45;;;0.90;;
33954;SDS011;20233;50.804;7.126;2023-07-30T08:49:36;6.45;;;1.55;;
33954;SDS011;20233;50.804;7.126;2023-07-30T08:52:02;8.60;;;2.17;;
33954;SDS011;20233;50.804;7.126;2023-07-30T08:54:29;9.90;;;1.48;;
33954;SDS011;20233;50.804;7.126;2023-07-30T08:56:56;11.98;;;1.48;;
33954;SDS011;20233;50.804;7.126;2023-07-30T08:59:23;8.27;;;1.30;;
33954;SDS011;20233;50.804;7.126;2023-07-30T09:01:51;12.45;;;1.35;;
33954;SDS011;20233;50.804;7.126;2023-07-30T09:04:18;10.40;;;1.45;;
33954;SDS011;20233;50.804;7.126;2023-07-30T09:06:48;7.30;;;1.65;;
33954;SDS011;20233;50.804;7.126;2023-07-30T09:09:15;13.52;;;1.67;;
33954;SDS011;20233;50.804;7.126;2023-07-30T09:11:40;10.57;;;1.15;;
33954;SDS011;20233;50.804;7.126;2023-07-30T09:14:06;9.05;;;1.17;;
33954;SDS011;20233;50.804;7.126;2023-07-30T09:16:33;10.45;;;0.98;;
33954;SDS011;20233;50.804;7.126;2023-07-30T09:18:59;10.40;;;1.52;;
33954;SDS011;20233;50.804;7.126;2023-07-30T09:21:31;6.75;;;1.75;;
33954;SDS011;20233;50.804;7.126;2023-07-30T09:23:58;7.25;;;1.17;;
33954;SDS011;20233;50.804;7.126;2023-07-30T09:26:31;9.38;;;1.27;;
33954;SDS011;20233;50.804;7.126;2023-07-30T09:29:09;9.13;;;0.80;;
33954;SDS011;20233;50.804;7.126;2023-07-30T09:31:48;7.45;;;0.68;;
33954;SDS011;20233;50.804;7.126;2023-07-30T09:36:43;7.93;;;1.77;;
33954;SDS011;20233;50.804;7.126;2023-07-30T09:39:16;9.88;;;1.00;;
33954;SDS011;20233;50.804;7.126;2023-07-30T09:41:44;5.82;;;0.60;;
33954;SDS011;20233;50.804;7.126;2023-07-30T09:44:10;10.23;;;0.85;;
33954;SDS011;20233;50.804;7.126;2023-07-30T09:46:43;5.75;;;0.63;;
33954;SDS011;20233;50.804;7.126;2023-07-30T09:49:09;8.20;;;0.70;;
33954;SDS011;20233;50.804;7.126;2023-07-30T09:51:38;5.03;;;0.50;;
33954;SDS011;20233;50.804;7.126;2023-07-30T09:54:08;8.40;;;0.68;;
33954;SDS011;20233;50.804;7.126;2023-07-30T09:56:36;8.15;;;1.08;;
33954;SDS011;20233;50.804;7.126;2023-07-30T09:59:03;3.80;;;0.75;;
33954;SDS011;20233;50.804;7.126;2023-07-30T10:01:29;4.97;;;0.50;;
33954;SDS011;20233;50.804;7.126;2023-07-30T10:03:57;9.98;;;0.65;;
33954;SDS011;20233;50.804;7.126;2023-07-30T10:06:26;6.85;;;0.52;;
33954;SDS011;20233;50.804;7.126;2023-07-30T10:08:54;6.30;;;0.65;;
33954;SDS011;20233;50.804;7.126;2023-07-30T10:11:22;7.35;;;0.77;;
33954;SDS011;20233;50.804;7.126;2023-07-30T10:13:48;7.80;;;0.50;;
33954;SDS011;20233;50.804;7.126;2023-07-30T10:16:14;6.15;;;0.40;;
33954;SDS011;20233;50.804;7.126;2023-07-30T10:18:41;8.73;;;0.68;;
33954;SDS011;20233;50.804;7.126;2023-07-30T10:21:08;3.88;;;0.63;;
33954;SDS011;20233;50.804;7.126;2023-07-30T10:23:34;5.50;;;0.57;;
33954;SDS011;20233;50.804;7.126;2023-07-30T10:26:08;5.65;;;0.80;;
33954;SDS011;20233;50.804;7.126;2023-07-30T10:28:35;8.52;;;0.47;;
33954;SDS011;20233;50.804;7.126;2023-07-30T10:31:07;6.72;;;0.77;;
33954;SDS011;20233;50.804;7.126;2023-07-30T10:33:52;4.72;;;0.75;;
33954;SDS011;20233;50.804;7.126;2023-07-30T10:37:03;5.22;;;0.32;;
33954;SDS011;20233;50.804;7.126;2023-07-30T10:39:20;5.45;;;0.47;;
33954;SDS011;20233;50.804;7.126;2023-07-30T10:41:50;5.47;;;0.77;;
33954;SDS011;20233;50.804;7.126;2023-07-30T10:44:27;4.28;;;0.30;;
33954;SDS011;20233;50.804;7.126;2023-07-30T10:46:56;5.70;;;1.05;;
33954;SDS011;20233;50.804;7.126;2023-07-30T10:49:22;8.95;;;0.60;;
33954;SDS011;20233;50.804;7.126;2023-07-30T10:51:50;4.97;;;0.55;;
33954;SDS011;20233;50.804;7.126;2023-07-30T10:54:16;7.53;;;0.50;;
33954;SDS011;20233;50.804;7.126;2023-07-30T10:56:42;5.40;;;0.40;;
33954;SDS011;20233;50.804;7.126;2023-07-30T10:59:08;5.13;;;0.47;;
33954;SDS011;20233;50.804;7.126;2023-07-30T11:01:38;4.60;;;0.60;;
33954;SDS011;20233;50.804;7.126;2023-07-30T11:04:10;3.95;;;0.75;;
33954;SDS011;20233;50.804;7.126;2023-07-30T11:06:38;6.60;;;0.80;;
33954;SDS011;20233;50.804;7.126;2023-07-30T11:09:04;7.93;;;0.60;;
33954;SDS011;20233;50.804;7.126;2023-07-30T11:11:42;5.40;;;0.40;;
33954;SDS011;20233;50.804;7.126;2023-07-30T11:14:08;6.40;;;0.38;;
33954;SDS011;20233;50.804;7.126;2023-07-30T11:16:57;4.10;;;0.40;;
33954;SDS011;20233;50.804;7.126;2023-07-30T11:19:24;7.22;;;0.52;;
33954;SDS011;20233;50.804;7.126;2023-07-30T11:21:54;6.72;;;0.75;;
33954;SDS011;20233;50.804;7.126;2023-07-30T11:24:21;7.38;;;0.57;;
33954;SDS011;20233;50.804;7.126;2023-07-30T11:26:58;4.70;;;0.70;;
33954;SDS011;20233;50.804;7.126;2023-07-30T11:29:24;3.05;;;0.30;;
33954;SDS011;20233;50.804;7.126;2023-07-30T11:31:49;2.85;;;0.30;;
33954;SDS011;20233;50.804;7.126;2023-07-30T11:34:15;3.55;;;0.50;;
33954;SDS011;20233;50.804;7.126;2023-07-30T11:36:43;2.65;;;0.45;;
33954;SDS011;20233;50.804;7.126;2023-07-30T11:39:09;4.05;;;0.40;;
33954;SDS011;20233;50.804;7.126;2023-07-30T11:41:35;2.85;;;0.40;;
33954;SDS011;20233;50.804;7.126;2023-07-30T11:44:01;3.50;;;0.30;;
33954;SDS011;20233;50.804;7.126;2023-07-30T11:46:28;2.97;;;0.32;;
33954;SDS011;20233;50.804;7.126;2023-07-30T11:49:10;4.80;;;0.50;;
33954;SDS011;20233;50.804;7.126;2023-07-30T11:51:36;1.38;;;0.20;;
33954;SDS011;20233;50.804;7.126;2023-07-30T11:54:02;3.63;;;0.50;;
33954;SDS011;20233;50.804;7.126;2023-07-30T11:56:28;4.03;;;0.38;;
33954;SDS011;20233;50.804;7.126;2023-07-30T11:58:56;6.30;;;0.30;;
33954;SDS011;20233;50.804;7.126;2023-07-30T12:01:26;2.70;;;0.22;;
33954;SDS011;20233;50.804;7.126;2023-07-30T12:03:55;4.80;;;0.45;;
33954;SDS011;20233;50.804;7.126;2023-07-30T12:06:21;4.07;;;0.35;;
33954;SDS011;20233;50.804;7.126;2023-07-30T12:08:48;2.60;;;0.10;;
33954;SDS011;20233;50.804;7.126;2023-07-30T12:11:14;3.88;;;0.47;;
33954;SDS011;20233;50.804;7.126;2023-07-30T12:13:44;2.13;;;0.13;;
33954;SDS011;20233;50.804;7.126;2023-07-30T12:16:13;4.57;;;0.20;;
33954;SDS011;20233;50.804;7.126;2023-07-30T12:18:39;3.70;;;0.40;;
33954;SDS011;20233;50.804;7.126;2023-07-30T12:21:05;5.68;;;0.38;;
33954;SDS011;20233;50.804;7.126;2023-07-30T12:23:32;3.25;;;0.20;;
33954;SDS011;20233;50.804;7.126;2023-07-30T12:26:02;4.20;;;0.30;;
33954;SDS011;20233;50.804;7.126;2023-07-30T12:28:29;2.15;;;0.30;;
33954;SDS011;20233;50.804;7.126;2023-07-30T12:30:56;4.65;;;0.38;;
33954;SDS011;20233;50.804;7.126;2023-07-30T12:33:22;5.35;;;0.50;;
33954;SDS011;20233;50.804;7.126;2023-07-30T12:35:47;3.45;;;0.30;;
33954;SDS011;20233;50.804;7.126;2023-07-30T12:38:15;5.18;;;0.43;;
33954;SDS011;20233;50.804;7.126;2023-07-30T12:40:40;4.85;;;0.60;;
33954;SDS011;20233;50.804;7.126;2023-07-30T12:43:06;3.75;;;0.30;;
33954;SDS011;20233;50.804;7.126;2023-07-30T12:45:32;5.82;;;0.60;;
33954;SDS011;20233;50.804;7.126;2023-07-30T12:47:57;3.50;;;0.32;;
33954;SDS011;20233;50.804;7.126;2023-07-30T12:50:23;4.15;;;0.30;;
33954;SDS011;20233;50.804;7.126;2023-07-30T12:52:49;4.50;;;0.40;;
33954;SDS011;20233;50.804;7.126;2023-07-30T12:55:15;4.05;;;0.50;;
33954;SDS011;20233;50.804;7.126;2023-07-30T12:57:40;3.05;;;0.43;;
33954;SDS011;20233;50.804;7.126;2023-07-30T13:00:06;5.10;;;0.30;;
33954;SDS011;20233;50.804;7.126;2023-07-30T13:02:32;4.30;;;0.32;;
33954;SDS011;20233;50.804;7.126;2023-07-30T13:04:59;5.15;;;0.68;;
33954;SDS011;20233;50.804;7.126;2023-07-30T13:07:25;2.97;;;0.38;;
33954;SDS011;20233;50.804;7.126;2023-07-30T13:10:01;3.45;;;0.45;;
33954;SDS011;20233;50.804;7.126;2023-07-30T13:12:33;2.65;;;0.50;;
33954;SDS011;20233;50.804;7.126;2023-07-30T13:15:00;2.65;;;0.45;;
33954;SDS011;20233;50.804;7.126;2023-07-30T13:17:26;5.15;;;0.47;;
33954;SDS011;20233;50.804;7.126;2023-07-30T13:19:51;6.05;;;0.47;;
33954;SDS011;20233;50.804;7.126;2023-07-30T13:22:17;3.78;;;0.22;;
33954;SDS011;20233;50.804;7.126;2023-07-30T13:24:43;5.03;;;0.32;;
33954;SDS011;20233;50.804;7.126;2023-07-30T13:27:08;5.00;;;0.40;;
33954;SDS011;20233;50.804;7.126;2023-07-30T13:29:34;3.38;;;0.30;;
33954;SDS011;20233;50.804;7.126;2023-07-30T13:31:59;2.50;;;0.28;;
33954;SDS011;20233;50.804;7.126;2023-07-30T13:34:25;4.13;;;0.60;;
33954;SDS011;20233;50.804;7.126;2023-07-30T13:36:51;4.30;;;0.73;;
33954;SDS011;20233;50.804;7.126;2023-07-30T13:39:17;3.15;;;0.30;;
33954;SDS011;20233;50.804;7.126;2023-07-30T13:41:43;4.45;;;0.35;;
33954;SDS011;20233;50.804;7.126;2023-07-30T13:44:09;4.32;;;0.68;;
33954;SDS011;20233;50.804;7.126;2023-07-30T13:46:36;3.53;;;0.38;;
33954;SDS011;20233;50.804;7.126;2023-07-30T13:49:02;2.90;;;0.30;;
33954;SDS011;20233;50.804;7.126;2023-07-30T13:51:27;3.45;;;0.75;;
33954;SDS011;20233;50.804;7.126;2023-07-30T13:53:57;4.43;;;0.40;;
33954;SDS011;20233;50.804;7.126;2023-07-30T13:56:24;2.95;;;0.30;;
33954;SDS011;20233;50.804;7.126;2023-07-30T13:58:50;4.15;;;0.30;;
33954;SDS011;20233;50.804;7.126;2023-07-30T14:01:15;4.43;;;0.50;;
33954;SDS011;20233;50.804;7.126;2023-07-30T14:03:41;3.63;;;0.30;;
33954;SDS011;20233;50.804;7.126;2023-07-30T14:06:06;3.58;;;0.30;;
33954;SDS011;20233;50.804;7.126;2023-07-30T14:08:32;3.63;;;0.60;;
33954;SDS011;20233;50.804;7.126;2023-07-30T14:10:57;4.80;;;0.60;;
33954;SDS011;20233;50.804;7.126;2023-07-30T14:13:24;4.30;;;0.47;;
33954;SDS011;20233;50.804;7.126;2023-07-30T14:15:49;2.90;;;0.32;;
33954;SDS011;20233;50.804;7.126;2023-07-30T14:18:15;2.13;;;0.30;;
33954;SDS011;20233;50.804;7.126;2023-07-30T14:20:40;3.13;;;0.40;;
33954;SDS011;20233;50.804;7.126;2023-07-30T14:23:06;3.08;;;0.25;;
33954;SDS011;20233;50.804;7.126;2023-07-30T14:25:32;6.53;;;0.40;;
33954;SDS011;20233;50.804;7.126;2023-07-30T14:27:57;4.70;;;0.38;;
33954;SDS011;20233;50.804;7.126;2023-07-30T14:30:23;4.88;;;0.50;;
33954;SDS011;20233;50.804;7.126;2023-07-30T14:32:50;4.15;;;0.73;;
33954;SDS011;20233;50.804;7.126;2023-07-30T14:35:16;2.95;;;0.40;;
33954;SDS011;20233;50.804;7.126;2023-07-30T14:37:41;5.00;;;0.40;;
33954;SDS011;20233;50.804;7.126;2023-07-30T14:40:07;4.18;;;0.30;;
33954;SDS011;20233;50.804;7.126;2023-07-30T14:42:33;4.10;;;0.40;;
33954;SDS011;20233;50.804;7.126;2023-07-30T14:44:58;6.05;;;0.45;;
33954;SDS011;20233;50.804;7.126;2023-07-30T14:47:24;4.65;;;0.52;;